Robins Air Force Base
KWRB : now visible

Airfield :











YOU CAN JOIN US ON...

 
LOGIN :

Register | Disclaimer

   EN    FR    IT 

 









Legend :    VFR   Marginal VFR   IFR   Intensive IFR   Very Intensive IFR
Visi :
Ceiling :
>= 8 km
>= 3000ft
5 to 8 km
1000 to 3000 ft
1500m to 5 km
500 to 1000 ft
800 to 1500m
200 to 500 ft
< 800m
< 200 ft
Symbols :   Thunderstorms  Fog  Heavy snow  Heavy precipitations  Wind > 20 kt






- Airport Elevation : 294 ft


KWRB - Robins Air Force Base

CURRENT METAR :
  • 090156Z 00000KT 10SM CLR 21/21 A2977 RMK AO2A SLP082 T02050205 $

EXPIRED METARs :
  • 090056Z AUTO 33007KT 10SM SCT011 21/21 A2977 RMK AO2 SLP082 P0001 T02090209 TSNO $
  • 082356Z AUTO 26009KT 10SM CLR 23/20 A2980 RMK AO2 RAB01E40 SLP092 P0005 60008 T02250202 10286 20225 50010 TSNO $

TAF TAF KWRB
Valid from the 08 at 21:00 until the 10 at 03:00 UTC


082100Z 0821/1003 32010G15KT 9999 FEW030 BKN050 QNH2978INS
TEMPO 0821/0903 28010G25KT 8000 -TSRA BKN030CB
BECMG 0903/0904 26006KT 9999 VCSH SCT015 510052 QNH2969INS
BECMG 0911/0912 26006KT 8000 -SHRA BKN008 510063 QNH2972INS
TEMPO 0911/0914 28015G25KT 8000 -TSRA BKN006CB
BECMG 0914/0915 29010G20KT 9999 NSW FEW035 510063 QNH2970INS
BECMG 0923/0924 VRB06KT 9999 FEW340 QNH2974INS TX28/0917Z TN16/0908Z



MET'MAP, your aeronautical weather chart ! - Copyright ORBIFLY December 2007 - Disclaimer

ORBIFLY MET'MAP TEAM :

Programming & Development : Alexandra Zaïnal
Concept & original design : Baudouin d'Aumeries
Assistance for programming : Marc-Olivier Méhu
Technical & hardware support : Manuel Goepfert

Contact : metmap@orbifly.com




SOURCES & CREDITS :

   NOAA       Earth
Advisory